sensor_id;sensor_type;location;lat;lon;timestamp;P1;durP1;ratioP1;P2;durP2;ratioP2
16892;SDS011;8563;52.242;9.098;2023-07-31T00:01:36;2.23;;;1.20;;
16892;SDS011;8563;52.242;9.098;2023-07-31T00:04:09;2.60;;;1.23;;
16892;SDS011;8563;52.242;9.098;2023-07-31T00:06:42;2.30;;;1.10;;
16892;SDS011;8563;52.242;9.098;2023-07-31T00:09:16;1.97;;;1.27;;
16892;SDS011;8563;52.242;9.098;2023-07-31T00:11:49;1.73;;;1.20;;
16892;SDS011;8563;52.242;9.098;2023-07-31T00:14:24;3.83;;;1.23;;
16892;SDS011;8563;52.242;9.098;2023-07-31T00:17:01;1.30;;;1.17;;
16892;SDS011;8563;52.242;9.098;2023-07-31T00:19:34;1.30;;;1.00;;
16892;SDS011;8563;52.242;9.098;2023-07-31T00:22:08;1.90;;;1.30;;
16892;SDS011;8563;52.242;9.098;2023-07-31T00:24:41;1.50;;;1.30;;
16892;SDS011;8563;52.242;9.098;2023-07-31T00:27:15;2.47;;;1.40;;
16892;SDS011;8563;52.242;9.098;2023-07-31T00:29:51;1.73;;;1.17;;
16892;SDS011;8563;52.242;9.098;2023-07-31T00:32:26;1.87;;;1.40;;
16892;SDS011;8563;52.242;9.098;2023-07-31T00:34:59;1.60;;;1.20;;
16892;SDS011;8563;52.242;9.098;2023-07-31T00:37:35;1.87;;;1.23;;
16892;SDS011;8563;52.242;9.098;2023-07-31T00:40:10;2.00;;;1.20;;
16892;SDS011;8563;52.242;9.098;2023-07-31T00:42:44;2.40;;;1.10;;
16892;SDS011;8563;52.242;9.098;2023-07-31T00:45:19;2.13;;;1.00;;
16892;SDS011;8563;52.242;9.098;2023-07-31T00:47:55;1.83;;;0.80;;
16892;SDS011;8563;52.242;9.098;2023-07-31T00:50:29;2.17;;;0.80;;
16892;SDS011;8563;52.242;9.098;2023-07-31T00:53:03;0.80;;;0.63;;
16892;SDS011;8563;52.242;9.098;2023-07-31T00:55:38;1.20;;;0.80;;
16892;SDS011;8563;52.242;9.098;2023-07-31T00:58:12;0.70;;;0.70;;
16892;SDS011;8563;52.242;9.098;2023-07-31T01:00:46;2.43;;;0.87;;
16892;SDS011;8563;52.242;9.098;2023-07-31T01:03:23;0.97;;;0.60;;
16892;SDS011;8563;52.242;9.098;2023-07-31T01:06:01;1.53;;;0.70;;
16892;SDS011;8563;52.242;9.098;2023-07-31T01:08:39;1.00;;;0.77;;
16892;SDS011;8563;52.242;9.098;2023-07-31T01:11:14;1.23;;;0.60;;
16892;SDS011;8563;52.242;9.098;2023-07-31T01:13:48;1.23;;;0.70;;
16892;SDS011;8563;52.242;9.098;2023-07-31T01:16:21;0.83;;;0.50;;
16892;SDS011;8563;52.242;9.098;2023-07-31T01:18:55;1.00;;;0.70;;
16892;SDS011;8563;52.242;9.098;2023-07-31T01:24:29;0.63;;;0.60;;
16892;SDS011;8563;52.242;9.098;2023-07-31T01:27:06;0.73;;;0.50;;
16892;SDS011;8563;52.242;9.098;2023-07-31T01:29:43;0.57;;;0.50;;
16892;SDS011;8563;52.242;9.098;2023-07-31T01:32:20;1.03;;;0.70;;
16892;SDS011;8563;52.242;9.098;2023-07-31T01:34:57;1.20;;;0.70;;
16892;SDS011;8563;52.242;9.098;2023-07-31T01:37:34;0.53;;;0.53;;
16892;SDS011;8563;52.242;9.098;2023-07-31T01:40:12;1.90;;;0.80;;
16892;SDS011;8563;52.242;9.098;2023-07-31T01:42:47;1.17;;;0.80;;
16892;SDS011;8563;52.242;9.098;2023-07-31T01:45:20;0.60;;;0.60;;
16892;SDS011;8563;52.242;9.098;2023-07-31T01:47:53;2.07;;;0.80;;
16892;SDS011;8563;52.242;9.098;2023-07-31T01:50:27;0.73;;;0.73;;
16892;SDS011;8563;52.242;9.098;2023-07-31T01:53:03;1.00;;;0.90;;
16892;SDS011;8563;52.242;9.098;2023-07-31T01:55:36;1.20;;;1.00;;
16892;SDS011;8563;52.242;9.098;2023-07-31T01:58:12;1.07;;;0.73;;
16892;SDS011;8563;52.242;9.098;2023-07-31T02:00:47;1.00;;;0.80;;
16892;SDS011;8563;52.242;9.098;2023-07-31T02:03:20;1.90;;;0.90;;
16892;SDS011;8563;52.242;9.098;2023-07-31T02:05:55;1.33;;;1.10;;
16892;SDS011;8563;52.242;9.098;2023-07-31T02:08:29;1.80;;;1.10;;
16892;SDS011;8563;52.242;9.098;2023-07-31T02:11:02;1.43;;;1.10;;
16892;SDS011;8563;52.242;9.098;2023-07-31T02:13:37;1.00;;;0.90;;
16892;SDS011;8563;52.242;9.098;2023-07-31T02:16:11;0.83;;;0.73;;
16892;SDS011;8563;52.242;9.098;2023-07-31T02:18:44;1.50;;;0.87;;
16892;SDS011;8563;52.242;9.098;2023-07-31T02:21:17;1.20;;;1.10;;
16892;SDS011;8563;52.242;9.098;2023-07-31T02:23:51;1.90;;;1.23;;
16892;SDS011;8563;52.242;9.098;2023-07-31T02:26:26;1.90;;;1.30;;
16892;SDS011;8563;52.242;9.098;2023-07-31T02:29:04;2.40;;;1.23;;
16892;SDS011;8563;52.242;9.098;2023-07-31T02:31:39;1.93;;;1.13;;
16892;SDS011;8563;52.242;9.098;2023-07-31T02:34:12;1.83;;;1.20;;
16892;SDS011;8563;52.242;9.098;2023-07-31T02:36:46;1.37;;;1.13;;
16892;SDS011;8563;52.242;9.098;2023-07-31T02:39:22;1.23;;;1.00;;
16892;SDS011;8563;52.242;9.098;2023-07-31T02:41:56;1.47;;;1.20;;
16892;SDS011;8563;52.242;9.098;2023-07-31T02:44:31;1.67;;;1.30;;
16892;SDS011;8563;52.242;9.098;2023-07-31T02:47:08;1.60;;;1.50;;
16892;SDS011;8563;52.242;9.098;2023-07-31T02:49:42;3.60;;;1.30;;
16892;SDS011;8563;52.242;9.098;2023-07-31T02:52:16;1.30;;;1.20;;
16892;SDS011;8563;52.242;9.098;2023-07-31T02:54:50;1.23;;;1.10;;
16892;SDS011;8563;52.242;9.098;2023-07-31T02:57:24;1.20;;;1.10;;
16892;SDS011;8563;52.242;9.098;2023-07-31T02:59:59;1.33;;;1.00;;
16892;SDS011;8563;52.242;9.098;2023-07-31T03:02:36;1.93;;;1.10;;
16892;SDS011;8563;52.242;9.098;2023-07-31T03:05:10;2.50;;;1.27;;
16892;SDS011;8563;52.242;9.098;2023-07-31T03:07:43;1.10;;;1.00;;
16892;SDS011;8563;52.242;9.098;2023-07-31T03:10:16;1.20;;;1.00;;
16892;SDS011;8563;52.242;9.098;2023-07-31T03:12:49;1.27;;;1.17;;
16892;SDS011;8563;52.242;9.098;2023-07-31T03:15:25;1.23;;;1.00;;
16892;SDS011;8563;52.242;9.098;2023-07-31T03:17:59;1.53;;;1.13;;
16892;SDS011;8563;52.242;9.098;2023-07-31T03:20:32;2.20;;;1.20;;
16892;SDS011;8563;52.242;9.098;2023-07-31T03:23:05;1.93;;;1.20;;
16892;SDS011;8563;52.242;9.098;2023-07-31T03:25:37;1.43;;;1.20;;
16892;SDS011;8563;52.242;9.098;2023-07-31T03:28:10;1.50;;;1.03;;
16892;SDS011;8563;52.242;9.098;2023-07-31T03:30:45;1.67;;;1.20;;
16892;SDS011;8563;52.242;9.098;2023-07-31T03:33:19;1.87;;;1.20;;
16892;SDS011;8563;52.242;9.098;2023-07-31T03:35:54;1.00;;;0.90;;
16892;SDS011;8563;52.242;9.098;2023-07-31T03:38:30;1.37;;;1.20;;
16892;SDS011;8563;52.242;9.098;2023-07-31T03:41:02;1.10;;;0.80;;
16892;SDS011;8563;52.242;9.098;2023-07-31T03:43:36;1.73;;;0.80;;
16892;SDS011;8563;52.242;9.098;2023-07-31T03:46:14;1.03;;;0.80;;
16892;SDS011;8563;52.242;9.098;2023-07-31T03:48:50;3.33;;;0.70;;
16892;SDS011;8563;52.242;9.098;2023-07-31T03:51:23;0.70;;;0.70;;
16892;SDS011;8563;52.242;9.098;2023-07-31T03:53:58;0.93;;;0.77;;
16892;SDS011;8563;52.242;9.098;2023-07-31T03:56:31;0.90;;;0.50;;
16892;SDS011;8563;52.242;9.098;2023-07-31T03:59:04;0.80;;;0.50;;
16892;SDS011;8563;52.242;9.098;2023-07-31T04:01:40;0.70;;;0.50;;
16892;SDS011;8563;52.242;9.098;2023-07-31T04:04:13;0.93;;;0.50;;
16892;SDS011;8563;52.242;9.098;2023-07-31T04:06:47;2.63;;;0.60;;
16892;SDS011;8563;52.242;9.098;2023-07-31T04:09:20;1.90;;;0.57;;
16892;SDS011;8563;52.242;9.098;2023-07-31T04:11:53;0.60;;;0.60;;
16892;SDS011;8563;52.242;9.098;2023-07-31T04:14:27;0.97;;;0.57;;
16892;SDS011;8563;52.242;9.098;2023-07-31T04:17:02;1.30;;;0.83;;
16892;SDS011;8563;52.242;9.098;2023-07-31T04:19:36;2.03;;;0.87;;
16892;SDS011;8563;52.242;9.098;2023-07-31T04:22:09;1.20;;;1.00;;
16892;SDS011;8563;52.242;9.098;2023-07-31T04:24:43;1.20;;;1.10;;
16892;SDS011;8563;52.242;9.098;2023-07-31T04:27:15;3.03;;;1.30;;
16892;SDS011;8563;52.242;9.098;2023-07-31T04:29:53;2.43;;;1.30;;
16892;SDS011;8563;52.242;9.098;2023-07-31T04:32:27;1.70;;;1.60;;
16892;SDS011;8563;52.242;9.098;2023-07-31T04:35:00;4.10;;;2.93;;
16892;SDS011;8563;52.242;9.098;2023-07-31T04:37:33;5.10;;;2.70;;
16892;SDS011;8563;52.242;9.098;2023-07-31T04:40:07;4.17;;;3.03;;
16892;SDS011;8563;52.242;9.098;2023-07-31T04:42:41;9.00;;;5.77;;
16892;SDS011;8563;52.242;9.098;2023-07-31T04:45:15;6.03;;;4.97;;
16892;SDS011;8563;52.242;9.098;2023-07-31T04:47:49;8.07;;;5.93;;
16892;SDS011;8563;52.242;9.098;2023-07-31T04:50:22;8.80;;;6.50;;
16892;SDS011;8563;52.242;9.098;2023-07-31T04:52:57;9.40;;;6.50;;
16892;SDS011;8563;52.242;9.098;2023-07-31T04:55:30;9.70;;;7.50;;
16892;SDS011;8563;52.242;9.098;2023-07-31T04:58:04;8.87;;;6.93;;
16892;SDS011;8563;52.242;9.098;2023-07-31T05:00:39;10.97;;;7.63;;
16892;SDS011;8563;52.242;9.098;2023-07-31T05:03:18;10.60;;;7.77;;
16892;SDS011;8563;52.242;9.098;2023-07-31T05:05:51;11.40;;;7.70;;
16892;SDS011;8563;52.242;9.098;2023-07-31T05:08:24;8.17;;;6.50;;
16892;SDS011;8563;52.242;9.098;2023-07-31T05:10:59;11.57;;;7.20;;
16892;SDS011;8563;52.242;9.098;2023-07-31T05:13:31;12.33;;;7.90;;
16892;SDS011;8563;52.242;9.098;2023-07-31T05:16:05;8.63;;;6.77;;
16892;SDS011;8563;52.242;9.098;2023-07-31T05:18:40;11.90;;;7.33;;
16892;SDS011;8563;52.242;9.098;2023-07-31T05:21:14;9.93;;;7.53;;
16892;SDS011;8563;52.242;9.098;2023-07-31T05:23:49;11.77;;;8.07;;
16892;SDS011;8563;52.242;9.098;2023-07-31T05:26:22;10.57;;;7.60;;
16892;SDS011;8563;52.242;9.098;2023-07-31T05:28:55;11.10;;;7.40;;
16892;SDS011;8563;52.242;9.098;2023-07-31T05:31:29;12.57;;;9.03;;
16892;SDS011;8563;52.242;9.098;2023-07-31T05:34:04;11.77;;;8.07;;
16892;SDS011;8563;52.242;9.098;2023-07-31T05:36:37;10.57;;;7.37;;
16892;SDS011;8563;52.242;9.098;2023-07-31T05:39:11;12.23;;;7.97;;
16892;SDS011;8563;52.242;9.098;2023-07-31T05:41:44;13.97;;;8.10;;
16892;SDS011;8563;52.242;9.098;2023-07-31T05:44:18;11.63;;;7.67;;
16892;SDS011;8563;52.242;9.098;2023-07-31T05:46:51;12.67;;;8.30;;
16892;SDS011;8563;52.242;9.098;2023-07-31T05:49:26;12.77;;;8.40;;
16892;SDS011;8563;52.242;9.098;2023-07-31T05:52:00;13.40;;;8.00;;
16892;SDS011;8563;52.242;9.098;2023-07-31T05:54:34;10.13;;;7.33;;
16892;SDS011;8563;52.242;9.098;2023-07-31T05:57:07;8.77;;;6.90;;
16892;SDS011;8563;52.242;9.098;2023-07-31T05:59:40;10.00;;;8.13;;
16892;SDS011;8563;52.242;9.098;2023-07-31T06:02:13;11.70;;;7.83;;
16892;SDS011;8563;52.242;9.098;2023-07-31T06:04:48;12.57;;;7.80;;
16892;SDS011;8563;52.242;9.098;2023-07-31T06:07:21;10.83;;;7.33;;
16892;SDS011;8563;52.242;9.098;2023-07-31T06:09:54;15.73;;;8.23;;
16892;SDS011;8563;52.242;9.098;2023-07-31T06:12:33;12.53;;;7.70;;
16892;SDS011;8563;52.242;9.098;2023-07-31T06:15:06;14.60;;;8.87;;
16892;SDS011;8563;52.242;9.098;2023-07-31T06:17:41;14.57;;;7.93;;
16892;SDS011;8563;52.242;9.098;2023-07-31T06:20:16;14.07;;;8.23;;
16892;SDS011;8563;52.242;9.098;2023-07-31T06:22:49;11.00;;;7.40;;
16892;SDS011;8563;52.242;9.098;2023-07-31T06:25:23;16.40;;;8.40;;
16892;SDS011;8563;52.242;9.098;2023-07-31T06:27:56;12.67;;;7.13;;
16892;SDS011;8563;52.242;9.098;2023-07-31T06:30:29;16.13;;;8.23;;
16892;SDS011;8563;52.242;9.098;2023-07-31T06:33:02;14.40;;;8.37;;
16892;SDS011;8563;52.242;9.098;2023-07-31T06:35:37;13.50;;;7.37;;
16892;SDS011;8563;52.242;9.098;2023-07-31T06:38:10;13.07;;;7.10;;
16892;SDS011;8563;52.242;9.098;2023-07-31T06:40:44;13.37;;;6.77;;
16892;SDS011;8563;52.242;9.098;2023-07-31T06:43:17;9.73;;;6.70;;
16892;SDS011;8563;52.242;9.098;2023-07-31T06:45:50;13.50;;;7.90;;
16892;SDS011;8563;52.242;9.098;2023-07-31T06:48:24;10.83;;;6.83;;
16892;SDS011;8563;52.242;9.098;2023-07-31T06:51:00;10.57;;;6.90;;
16892;SDS011;8563;52.242;9.098;2023-07-31T06:53:32;12.77;;;6.63;;
16892;SDS011;8563;52.242;9.098;2023-07-31T06:56:06;11.10;;;7.00;;
16892;SDS011;8563;52.242;9.098;2023-07-31T06:58:39;12.77;;;6.80;;
16892;SDS011;8563;52.242;9.098;2023-07-31T07:01:12;12.03;;;6.33;;
16892;SDS011;8563;52.242;9.098;2023-07-31T07:03:45;12.07;;;5.90;;
16892;SDS011;8563;52.242;9.098;2023-07-31T07:06:22;14.67;;;6.97;;
16892;SDS011;8563;52.242;9.098;2023-07-31T07:08:56;12.53;;;5.93;;
16892;SDS011;8563;52.242;9.098;2023-07-31T07:11:29;9.07;;;5.67;;
16892;SDS011;8563;52.242;9.098;2023-07-31T07:14:02;11.73;;;6.50;;
16892;SDS011;8563;52.242;9.098;2023-07-31T07:16:35;8.07;;;5.50;;
16892;SDS011;8563;52.242;9.098;2023-07-31T07:19:08;11.97;;;6.57;;
16892;SDS011;8563;52.242;9.098;2023-07-31T07:21:43;11.37;;;6.53;;
16892;SDS011;8563;52.242;9.098;2023-07-31T07:24:16;9.27;;;5.57;;
16892;SDS011;8563;52.242;9.098;2023-07-31T07:26:48;11.37;;;6.10;;
16892;SDS011;8563;52.242;9.098;2023-07-31T07:29:22;11.03;;;5.87;;
16892;SDS011;8563;52.242;9.098;2023-07-31T07:31:55;11.87;;;5.40;;
16892;SDS011;8563;52.242;9.098;2023-07-31T07:34:28;12.18;;;6.18;;
16892;SDS011;8563;52.242;9.098;2023-07-31T07:37:03;8.63;;;5.25;;
16892;SDS011;8563;52.242;9.098;2023-07-31T07:39:36;9.48;;;5.10;;
16892;SDS011;8563;52.242;9.098;2023-07-31T07:42:09;9.63;;;5.90;;
16892;SDS011;8563;52.242;9.098;2023-07-31T07:44:42;14.75;;;6.55;;
16892;SDS011;8563;52.242;9.098;2023-07-31T07:47:15;11.07;;;5.35;;
16892;SDS011;8563;52.242;9.098;2023-07-31T07:49:48;9.73;;;5.30;;
16892;SDS011;8563;52.242;9.098;2023-07-31T07:52:29;11.35;;;5.45;;
16892;SDS011;8563;52.242;9.098;2023-07-31T07:55:02;12.38;;;5.10;;
16892;SDS011;8563;52.242;9.098;2023-07-31T07:57:36;9.52;;;4.80;;
16892;SDS011;8563;52.242;9.098;2023-07-31T08:00:10;10.02;;;5.10;;
16892;SDS011;8563;52.242;9.098;2023-07-31T08:02:47;10.10;;;5.38;;
16892;SDS011;8563;52.242;9.098;2023-07-31T08:05:20;11.27;;;5.60;;
16892;SDS011;8563;52.242;9.098;2023-07-31T08:07:56;9.50;;;4.97;;
16892;SDS011;8563;52.242;9.098;2023-07-31T08:10:29;8.07;;;4.82;;
16892;SDS011;8563;52.242;9.098;2023-07-31T08:13:03;7.35;;;4.45;;
16892;SDS011;8563;52.242;9.098;2023-07-31T08:15:39;7.22;;;4.93;;
16892;SDS011;8563;52.242;9.098;2023-07-31T08:18:15;8.18;;;5.10;;
16892;SDS011;8563;52.242;9.098;2023-07-31T08:20:48;7.65;;;4.55;;
16892;SDS011;8563;52.242;9.098;2023-07-31T08:23:22;10.20;;;5.65;;
16892;SDS011;8563;52.242;9.098;2023-07-31T08:25:56;7.72;;;4.78;;
16892;SDS011;8563;52.242;9.098;2023-07-31T08:28:30;5.70;;;4.43;;
16892;SDS011;8563;52.242;9.098;2023-07-31T08:31:03;9.15;;;5.03;;
16892;SDS011;8563;52.242;9.098;2023-07-31T08:33:41;7.47;;;5.20;;
16892;SDS011;8563;52.242;9.098;2023-07-31T08:36:14;7.28;;;5.30;;
16892;SDS011;8563;52.242;9.098;2023-07-31T08:38:48;6.07;;;4.75;;
16892;SDS011;8563;52.242;9.098;2023-07-31T08:41:21;8.02;;;5.13;;
16892;SDS011;8563;52.242;9.098;2023-07-31T08:43:56;7.25;;;4.82;;
16892;SDS011;8563;52.242;9.098;2023-07-31T08:46:29;6.32;;;4.28;;
16892;SDS011;8563;52.242;9.098;2023-07-31T08:49:04;6.60;;;3.95;;
16892;SDS011;8563;52.242;9.098;2023-07-31T08:51:38;4.85;;;3.13;;
16892;SDS011;8563;52.242;9.098;2023-07-31T08:54:15;4.90;;;3.58;;
16892;SDS011;8563;52.242;9.098;2023-07-31T08:56:47;4.30;;;3.13;;
16892;SDS011;8563;52.242;9.098;2023-07-31T08:59:21;4.88;;;3.20;;
16892;SDS011;8563;52.242;9.098;2023-07-31T09:01:55;3.42;;;2.95;;
16892;SDS011;8563;52.242;9.098;2023-07-31T09:04:30;3.17;;;2.83;;
16892;SDS011;8563;52.242;9.098;2023-07-31T09:07:02;3.17;;;2.47;;
16892;SDS011;8563;52.242;9.098;2023-07-31T09:12:26;3.22;;;2.10;;
16892;SDS011;8563;52.242;9.098;2023-07-31T09:14:59;2.20;;;2.00;;
16892;SDS011;8563;52.242;9.098;2023-07-31T09:17:35;3.30;;;2.03;;
16892;SDS011;8563;52.242;9.098;2023-07-31T09:20:16;2.53;;;1.75;;
16892;SDS011;8563;52.242;9.098;2023-07-31T09:22:54;2.67;;;1.95;;
16892;SDS011;8563;52.242;9.098;2023-07-31T09:25:27;3.28;;;2.00;;
16892;SDS011;8563;52.242;9.098;2023-07-31T09:28:08;2.38;;;1.90;;
16892;SDS011;8563;52.242;9.098;2023-07-31T09:30:46;2.10;;;1.90;;
16892;SDS011;8563;52.242;9.098;2023-07-31T09:33:21;3.28;;;1.60;;
16892;SDS011;8563;52.242;9.098;2023-07-31T09:35:55;3.58;;;1.83;;
16892;SDS011;8563;52.242;9.098;2023-07-31T09:38:28;2.28;;;2.00;;
16892;SDS011;8563;52.242;9.098;2023-07-31T09:41:02;2.45;;;2.25;;
16892;SDS011;8563;52.242;9.098;2023-07-31T09:43:36;2.25;;;2.00;;
16892;SDS011;8563;52.242;9.098;2023-07-31T09:46:13;2.97;;;2.08;;
16892;SDS011;8563;52.242;9.098;2023-07-31T09:48:47;3.92;;;1.90;;
16892;SDS011;8563;52.242;9.098;2023-07-31T09:51:25;3.95;;;2.42;;
16892;SDS011;8563;52.242;9.098;2023-07-31T09:53:59;2.10;;;1.90;;
16892;SDS011;8563;52.242;9.098;2023-07-31T09:56:33;2.80;;;2.10;;
16892;SDS011;8563;52.242;9.098;2023-07-31T09:59:08;2.20;;;2.00;;
16892;SDS011;8563;52.242;9.098;2023-07-31T10:01:43;1.90;;;1.80;;
16892;SDS011;8563;52.242;9.098;2023-07-31T10:04:17;2.45;;;2.10;;
16892;SDS011;8563;52.242;9.098;2023-07-31T10:06:56;2.13;;;1.92;;
16892;SDS011;8563;52.242;9.098;2023-07-31T10:09:30;3.42;;;1.85;;
16892;SDS011;8563;52.242;9.098;2023-07-31T10:12:07;2.70;;;1.70;;
16892;SDS011;8563;52.242;9.098;2023-07-31T10:14:46;4.38;;;2.00;;
16892;SDS011;8563;52.242;9.098;2023-07-31T10:17:20;2.88;;;2.08;;
16892;SDS011;8563;52.242;9.098;2023-07-31T10:19:54;2.47;;;1.83;;
16892;SDS011;8563;52.242;9.098;2023-07-31T10:22:31;3.17;;;2.20;;
16892;SDS011;8563;52.242;9.098;2023-07-31T10:25:06;2.42;;;2.05;;
16892;SDS011;8563;52.242;9.098;2023-07-31T10:27:40;2.80;;;1.92;;
16892;SDS011;8563;52.242;9.098;2023-07-31T10:30:20;3.28;;;2.08;;
16892;SDS011;8563;52.242;9.098;2023-07-31T10:32:53;4.00;;;2.10;;
16892;SDS011;8563;52.242;9.098;2023-07-31T10:35:28;2.60;;;2.00;;
16892;SDS011;8563;52.242;9.098;2023-07-31T10:38:11;4.05;;;1.98;;
16892;SDS011;8563;52.242;9.098;2023-07-31T10:40:46;2.85;;;2.03;;
16892;SDS011;8563;52.242;9.098;2023-07-31T10:43:26;2.45;;;2.13;;
16892;SDS011;8563;52.242;9.098;2023-07-31T10:46:02;2.55;;;1.98;;
16892;SDS011;8563;52.242;9.098;2023-07-31T10:48:39;1.88;;;1.70;;
16892;SDS011;8563;52.242;9.098;2023-07-31T10:51:23;2.22;;;1.50;;
16892;SDS011;8563;52.242;9.098;2023-07-31T10:54:11;2.20;;;1.60;;
16892;SDS011;8563;52.242;9.098;2023-07-31T10:56:46;3.15;;;1.88;;
16892;SDS011;8563;52.242;9.098;2023-07-31T10:59:19;1.80;;;1.60;;
16892;SDS011;8563;52.242;9.098;2023-07-31T11:02:04;3.53;;;1.45;;
16892;SDS011;8563;52.242;9.098;2023-07-31T11:04:37;1.77;;;1.40;;
16892;SDS011;8563;52.242;9.098;2023-07-31T11:07:14;2.17;;;1.80;;
16892;SDS011;8563;52.242;9.098;2023-07-31T11:09:48;1.80;;;1.58;;
16892;SDS011;8563;52.242;9.098;2023-07-31T11:12:21;1.17;;;1.08;;
16892;SDS011;8563;52.242;9.098;2023-07-31T11:14:54;1.60;;;1.27;;
16892;SDS011;8563;52.242;9.098;2023-07-31T11:17:29;1.52;;;1.30;;
16892;SDS011;8563;52.242;9.098;2023-07-31T11:20:03;2.05;;;1.30;;
16892;SDS011;8563;52.242;9.098;2023-07-31T11:22:37;1.02;;;0.90;;
16892;SDS011;8563;52.242;9.098;2023-07-31T11:25:11;1.20;;;1.10;;
16892;SDS011;8563;52.242;9.098;2023-07-31T11:27:44;1.30;;;1.05;;
16892;SDS011;8563;52.242;9.098;2023-07-31T11:30:21;1.25;;;1.00;;
16892;SDS011;8563;52.242;9.098;2023-07-31T11:32:56;2.17;;;0.90;;
16892;SDS011;8563;52.242;9.098;2023-07-31T11:35:30;1.35;;;1.00;;
16892;SDS011;8563;52.242;9.098;2023-07-31T11:38:02;0.90;;;0.88;;
16892;SDS011;8563;52.242;9.098;2023-07-31T11:40:40;0.90;;;0.75;;
16892;SDS011;8563;52.242;9.098;2023-07-31T11:43:16;1.55;;;0.77;;
16892;SDS011;8563;52.242;9.098;2023-07-31T11:45:49;1.88;;;0.73;;
16892;SDS011;8563;52.242;9.098;2023-07-31T11:48:24;1.08;;;0.80;;
16892;SDS011;8563;52.242;9.098;2023-07-31T11:51:04;1.02;;;0.82;;
16892;SDS011;8563;52.242;9.098;2023-07-31T11:53:38;1.05;;;0.95;;
16892;SDS011;8563;52.242;9.098;2023-07-31T11:56:14;1.38;;;0.90;;
16892;SDS011;8563;52.242;9.098;2023-07-31T11:58:51;1.58;;;0.80;;
16892;SDS011;8563;52.242;9.098;2023-07-31T12:01:25;2.47;;;0.98;;
16892;SDS011;8563;52.242;9.098;2023-07-31T12:04:00;1.10;;;0.80;;
16892;SDS011;8563;52.242;9.098;2023-07-31T12:06:35;1.25;;;0.70;;
16892;SDS011;8563;52.242;9.098;2023-07-31T12:09:09;1.10;;;0.75;;
16892;SDS011;8563;52.242;9.098;2023-07-31T12:11:42;1.10;;;0.93;;
16892;SDS011;8563;52.242;9.098;2023-07-31T12:14:22;0.70;;;0.68;;
16892;SDS011;8563;52.242;9.098;2023-07-31T12:16:56;1.02;;;0.82;;
16892;SDS011;8563;52.242;9.098;2023-07-31T12:19:31;2.30;;;0.90;;
16892;SDS011;8563;52.242;9.098;2023-07-31T12:22:10;0.95;;;0.80;;
16892;SDS011;8563;52.242;9.098;2023-07-31T12:24:45;0.88;;;0.50;;
16892;SDS011;8563;52.242;9.098;2023-07-31T12:27:18;3.40;;;0.85;;
16892;SDS011;8563;52.242;9.098;2023-07-31T12:29:55;0.95;;;0.80;;
16892;SDS011;8563;52.242;9.098;2023-07-31T12:32:29;1.02;;;0.70;;
16892;SDS011;8563;52.242;9.098;2023-07-31T12:35:08;1.83;;;0.90;;
16892;SDS011;8563;52.242;9.098;2023-07-31T12:37:42;1.85;;;0.90;;
16892;SDS011;8563;52.242;9.098;2023-07-31T12:40:16;1.42;;;0.80;;
16892;SDS011;8563;52.242;9.098;2023-07-31T12:42:50;1.63;;;1.00;;
16892;SDS011;8563;52.242;9.098;2023-07-31T12:45:25;0.95;;;0.88;;
16892;SDS011;8563;52.242;9.098;2023-07-31T12:47:58;1.65;;;1.17;;
16892;SDS011;8563;52.242;9.098;2023-07-31T12:50:34;2.60;;;1.25;;
16892;SDS011;8563;52.242;9.098;2023-07-31T12:53:21;2.75;;;1.23;;
16892;SDS011;8563;52.242;9.098;2023-07-31T12:55:56;1.45;;;0.90;;
16892;SDS011;8563;52.242;9.098;2023-07-31T12:58:31;3.78;;;0.70;;
16892;SDS011;8563;52.242;9.098;2023-07-31T13:01:04;4.07;;;1.13;;
16892;SDS011;8563;52.242;9.098;2023-07-31T13:03:37;1.38;;;0.95;;
16892;SDS011;8563;52.242;9.098;2023-07-31T13:06:12;4.07;;;0.85;;
16892;SDS011;8563;52.242;9.098;2023-07-31T13:08:45;0.90;;;0.80;;
16892;SDS011;8563;52.242;9.098;2023-07-31T13:11:23;2.97;;;1.00;;
16892;SDS011;8563;52.242;9.098;2023-07-31T13:14:01;3.05;;;0.80;;
16892;SDS011;8563;52.242;9.098;2023-07-31T13:16:35;0.70;;;0.60;;
16892;SDS011;8563;52.242;9.098;2023-07-31T13:19:08;1.10;;;0.80;;
16892;SDS011;8563;52.242;9.098;2023-07-31T13:21:47;1.15;;;0.70;;
16892;SDS011;8563;52.242;9.098;2023-07-31T13:24:20;1.20;;;0.90;;
16892;SDS011;8563;52.242;9.098;2023-07-31T13:26:55;1.15;;;0.70;;
16892;SDS011;8563;52.242;9.098;2023-07-31T13:29:31;1.58;;;1.10;;
16892;SDS011;8563;52.242;9.098;2023-07-31T13:32:06;1.25;;;0.80;;
16892;SDS011;8563;52.242;9.098;2023-07-31T13:34:41;1.63;;;0.90;;
16892;SDS011;8563;52.242;9.098;2023-07-31T13:37:22;3.33;;;1.15;;
16892;SDS011;8563;52.242;9.098;2023-07-31T13:39:59;1.20;;;1.10;;
16892;SDS011;8563;52.242;9.098;2023-07-31T13:42:35;3.88;;;1.67;;
16892;SDS011;8563;52.242;9.098;2023-07-31T13:45:10;2.55;;;1.38;;
16892;SDS011;8563;52.242;9.098;2023-07-31T13:47:43;1.63;;;1.52;;
16892;SDS011;8563;52.242;9.098;2023-07-31T13:50:17;3.58;;;1.45;;
16892;SDS011;8563;52.242;9.098;2023-07-31T13:52:54;2.78;;;2.00;;
16892;SDS011;8563;52.242;9.098;2023-07-31T13:55:29;3.60;;;2.15;;
16892;SDS011;8563;52.242;9.098;2023-07-31T13:58:03;4.30;;;2.45;;
16892;SDS011;8563;52.242;9.098;2023-07-31T14:00:38;4.63;;;2.67;;
16892;SDS011;8563;52.242;9.098;2023-07-31T14:03:11;4.30;;;2.42;;
16892;SDS011;8563;52.242;9.098;2023-07-31T14:05:45;2.40;;;2.20;;
16892;SDS011;8563;52.242;9.098;2023-07-31T14:08:21;3.17;;;2.88;;
16892;SDS011;8563;52.242;9.098;2023-07-31T14:10:56;3.03;;;2.65;;
16892;SDS011;8563;52.242;9.098;2023-07-31T14:13:36;3.03;;;2.80;;
16892;SDS011;8563;52.242;9.098;2023-07-31T14:16:10;5.10;;;3.45;;
16892;SDS011;8563;52.242;9.098;2023-07-31T14:18:44;3.67;;;2.95;;
16892;SDS011;8563;52.242;9.098;2023-07-31T14:21:20;2.75;;;2.55;;
16892;SDS011;8563;52.242;9.098;2023-07-31T14:23:55;3.20;;;2.90;;
16892;SDS011;8563;52.242;9.098;2023-07-31T14:26:28;3.08;;;2.70;;
16892;SDS011;8563;52.242;9.098;2023-07-31T14:29:06;4.40;;;2.83;;
16892;SDS011;8563;52.242;9.098;2023-07-31T14:31:40;2.78;;;2.58;;
16892;SDS011;8563;52.242;9.098;2023-07-31T14:34:13;4.65;;;2.83;;
16892;SDS011;8563;52.242;9.098;2023-07-31T14:36:47;2.70;;;2.50;;
16892;SDS011;8563;52.242;9.098;2023-07-31T14:39:23;3.88;;;2.75;;
16892;SDS011;8563;52.242;9.098;2023-07-31T14:41:58;2.60;;;2.40;;
16892;SDS011;8563;52.242;9.098;2023-07-31T14:44:32;4.20;;;2.30;;
16892;SDS011;8563;52.242;9.098;2023-07-31T14:47:05;2.55;;;2.33;;
16892;SDS011;8563;52.242;9.098;2023-07-31T14:49:38;2.83;;;2.30;;
16892;SDS011;8563;52.242;9.098;2023-07-31T14:52:13;2.70;;;2.28;;
16892;SDS011;8563;52.242;9.098;2023-07-31T14:54:53;4.57;;;2.45;;
16892;SDS011;8563;52.242;9.098;2023-07-31T14:57:28;2.47;;;2.28;;
16892;SDS011;8563;52.242;9.098;2023-07-31T15:00:00;3.65;;;2.80;;
16892;SDS011;8563;52.242;9.098;2023-07-31T15:02:38;3.20;;;2.90;;
16892;SDS011;8563;52.242;9.098;2023-07-31T15:05:11;3.00;;;2.70;;
16892;SDS011;8563;52.242;9.098;2023-07-31T15:07:46;3.85;;;2.45;;
16892;SDS011;8563;52.242;9.098;2023-07-31T15:10:20;2.78;;;2.45;;
16892;SDS011;8563;52.242;9.098;2023-07-31T15:12:54;6.47;;;2.60;;
16892;SDS011;8563;52.242;9.098;2023-07-31T15:15:27;2.53;;;2.33;;
16892;SDS011;8563;52.242;9.098;2023-07-31T15:18:01;4.32;;;2.53;;
16892;SDS011;8563;52.242;9.098;2023-07-31T15:20:35;4.13;;;2.67;;
16892;SDS011;8563;52.242;9.098;2023-07-31T15:23:08;2.58;;;2.33;;
16892;SDS011;8563;52.242;9.098;2023-07-31T15:25:48;2.25;;;2.08;;
16892;SDS011;8563;52.242;9.098;2023-07-31T15:28:21;2.30;;;2.10;;
16892;SDS011;8563;52.242;9.098;2023-07-31T15:30:56;2.63;;;2.42;;
16892;SDS011;8563;52.242;9.098;2023-07-31T15:33:31;3.05;;;2.63;;
16892;SDS011;8563;52.242;9.098;2023-07-31T15:36:07;3.28;;;2.80;;
16892;SDS011;8563;52.242;9.098;2023-07-31T15:38:41;3.38;;;2.90;;
16892;SDS011;8563;52.242;9.098;2023-07-31T15:41:19;3.35;;;3.08;;
16892;SDS011;8563;52.242;9.098;2023-07-31T15:43:52;3.17;;;2.97;;
16892;SDS011;8563;52.242;9.098;2023-07-31T15:46:25;3.58;;;3.28;;
16892;SDS011;8563;52.242;9.098;2023-07-31T15:49:00;3.45;;;3.15;;
16892;SDS011;8563;52.242;9.098;2023-07-31T15:51:33;3.00;;;2.70;;